< Cyclone 200012 2000 Season Cyclone 200101 >
Cyclone 200013 (HUDAH)
General InformationTrack Information on Google MapsDetailed Wind InformationList of All Images || ResourceGoogle EarthGE AnimationAtom FeedGeoJSON
Detalied Best Track (Time Zone = UTC)
Year Month Day Hour Lat. Long. Pressure (hPa) Wind (kt) Class Image Chart
2000 3 24 00 -15.5 95.2 998 35 3 Image --
2000 3 24 06 -15.3 93.8 1000 40 3 Image --
2000 3 24 12 -15.2 92.7 999 40 3 Image --
2000 3 24 18 -15.1 91.5 997 45 3 Image --
2000 3 25 00 -15.0 90.4 994 50 4 Image --
2000 3 25 06 -15.2 89.3 990 0 0 Image --
2000 3 25 12 -15.2 88.4 980 0 0 Image --
2000 3 25 18 -15.1 87.5 978 0 0 Image --
2000 3 26 00 -15.0 86.5 978 0 0 Image --
2000 3 26 06 -14.8 85.3 978 0 0 Image --
2000 3 26 12 -14.6 84.4 976 0 0 Image --
2000 3 26 18 -14.6 83.7 974 0 0 Image --
2000 3 27 00 -14.5 82.6 970 0 0 Image --
2000 3 27 06 -14.4 81.6 965 0 0 Image --
2000 3 27 12 -14.5 80.7 965 0 0 Image --
2000 3 27 18 -14.6 79.5 965 0 0 Image --
2000 3 28 00 -14.8 78.2 960 0 0 Image --
2000 3 28 06 -15.1 77.1 960 0 0 Image --
2000 3 28 12 -15.3 76.1 960 0 0 Image --
2000 3 28 18 -15.7 75.1 960 0 0 Image --
2000 3 29 00 -16.0 73.5 955 0 0 Image --
2000 3 29 06 -16.2 72.6 950 0 0 Image --
2000 3 29 12 -16.5 71.3 950 0 0 Image --
2000 3 29 18 -16.7 70.1 950 0 0 Image --
2000 3 30 00 -16.8 68.7 955 0 0 Image --
2000 3 30 06 -16.7 67.7 960 0 0 Image --
2000 3 30 12 -16.9 66.6 965 0 0 Image --
2000 3 30 18 -17.0 65.4 965 0 0 Image --
2000 3 31 00 -17.0 64.4 960 0 0 Image --
2000 3 31 06 -16.9 63.0 945 0 0 Image --
2000 3 31 12 -16.9 61.7 935 0 0 Image --
2000 3 31 18 -17.0 60.6 928 0 0 Image --
2000 4 1 00 -16.9 59.4 915 0 0 Image --
2000 4 1 06 -16.7 58.1 910 0 0 Image --
2000 4 1 12 -16.5 56.9 910 0 0 Image --
2000 4 1 18 -16.4 55.6 910 0 0 Image --
2000 4 2 00 -16.0 54.1 905 0 0 Image --
2000 4 2 06 -15.5 52.9 905 0 0 Image --
2000 4 2 12 -15.3 51.4 905 0 0 Image --
2000 4 2 18 -14.9 50.5 910 0 0 Image --
2000 4 3 00 -14.7 49.1 938.667 0 0 Image --
2000 4 3 06 -14.8 47.4 967.333 0 0 Image --
2000 4 3 12 -14.6 46.0 996 0 0 Image --
2000 4 3 18 -14.6 45.2 997 0 0 Image --
2000 4 4 00 -14.8 44.4 994 0 0 Image --
2000 4 4 06 -15.1 43.5 990 0 0 Image --
2000 4 4 12 -15.5 42.6 983 0 0 Image --
2000 4 4 18 -16.0 41.8 978 0 0 Image --
2000 4 5 00 -16.2 41.0 975 0 0 Image --
2000 4 5 06 -16.5 40.2 975 0 0 Image --
2000 4 5 12 -16.8 39.7 975 0 0 Image --
2000 4 5 18 -17.1 39.4 970 0 0 Image --
2000 4 6 00 -17.6 39.0 965 0 0 Image --
2000 4 6 06 -17.9 38.8 965 0 0 Image --
2000 4 6 12 -18.4 38.6 965 0 0 Image --
2000 4 6 18 -18.7 38.6 960 0 0 Image --
2000 4 7 00 -18.7 38.3 955 0 0 Image --
2000 4 7 06 -18.6 38.3 947 0 0 Image --
2000 4 7 12 -18.5 38.1 947 0 0 Image --
2000 4 7 18 -18.0 38.6 947 0 0 Image --
2000 4 8 00 -17.7 38.5 955 0 0 Image --
2000 4 8 06 -17.1 38.3 970 0 0 Image --
2000 4 8 12 -16.6 38.3 970 0 0 Image --
2000 4 8 18 -16.0 38.3 970 0 0 Image --
2000 4 9 00 -15.5 38.3 970 0 0 Image --
< Cyclone 200012 2000 Season Cyclone 200101 >

Help